Time;durP1;ratioP1;P1;durP2;ratioP2;P2;SDS_P1;SDS_P2;PMS_P1;PMS_P2;Temp;Humidity;BMP_temperature;BMP_pressure;BME280_temperature;BME280_humidity;BME280_pressure;Samples;Min_cycle;Max_cycle;Signal;HPM_P1;HPM_P2
2020/12/15 00:05:15;;;;;;;2.27;1.80;;;7.30;99.90;;;;;;9990441;29;20225;-83
2020/12/15 00:10:37;;;;;;;2.47;2.10;;;7.40;99.90;;;;;;9991503;29;20224;-83
2020/12/15 00:15:58;;;;;;;1.87;1.63;;;7.40;99.90;;;;;;10000711;29;20209;-83
2020/12/15 00:21:22;;;;;;;4.90;2.10;;;7.40;99.90;;;;;;10009796;29;20225;-81
2020/12/15 00:26:43;;;;;;;2.77;2.30;;;7.40;99.90;;;;;;10021788;29;20197;-82
2020/12/15 00:32:05;;;;;;;2.10;1.90;;;7.50;99.90;;;;;;10015475;29;20731;-82
2020/12/15 00:37:28;;;;;;;2.97;1.97;;;7.40;99.90;;;;;;9990233;29;20209;-82
2020/12/15 00:42:49;;;;;;;2.23;1.97;;;7.40;99.90;;;;;;9990723;29;20221;-82
2020/12/15 00:48:11;;;;;;;3.27;2.30;;;7.40;99.90;;;;;;9983053;29;20221;-80
2020/12/15 00:53:35;;;;;;;3.93;2.20;;;7.30;99.90;;;;;;9983633;29;20218;-82
2020/12/15 00:58:57;;;;;;;7.70;2.83;;;7.20;99.90;;;;;;9985872;29;20209;-81
2020/12/15 01:04:19;;;;;;;3.53;2.20;;;7.30;99.90;;;;;;9986632;29;20217;-82
2020/12/15 01:09:41;;;;;;;4.10;2.03;;;7.40;99.90;;;;;;9988342;29;20211;-82
2020/12/15 01:15:04;;;;;;;2.60;2.20;;;7.30;99.90;;;;;;9987610;29;20201;-81
2020/12/15 01:20:25;;;;;;;2.63;2.00;;;7.30;99.90;;;;;;9987475;29;20232;-83
2020/12/15 01:25:48;;;;;;;4.50;2.43;;;7.40;99.90;;;;;;9985386;29;20217;-82
2020/12/15 01:31:09;;;;;;;3.83;2.03;;;7.40;99.90;;;;;;9986766;29;20225;-82
2020/12/15 01:36:32;;;;;;;3.07;2.07;;;7.50;99.90;;;;;;9984345;29;20197;-83
2020/12/15 01:41:54;;;;;;;2.70;2.10;;;7.50;99.90;;;;;;9985780;29;20248;-83
2020/12/15 01:47:17;;;;;;;2.67;1.80;;;7.60;99.90;;;;;;9985276;29;20224;-83
2020/12/15 01:52:39;;;;;;;2.07;1.87;;;7.40;99.90;;;;;;9980887;29;20244;-82
2020/12/15 01:58:02;;;;;;;1.97;1.77;;;7.60;99.90;;;;;;9983058;29;20668;-83
2020/12/15 02:03:24;;;;;;;1.90;1.80;;;7.70;99.90;;;;;;9984936;29;20592;-81
2020/12/15 02:08:46;;;;;;;3.40;2.23;;;7.40;99.90;;;;;;9983995;29;20225;-83
2020/12/15 02:14:09;;;;;;;2.73;2.20;;;7.40;99.90;;;;;;9982721;29;20696;-83
2020/12/15 02:19:30;;;;;;;3.47;2.47;;;7.40;99.90;;;;;;10012770;29;20199;-83
2020/12/15 02:24:53;;;;;;;2.93;2.63;;;7.40;99.90;;;;;;10021556;29;20224;-82
2020/12/15 02:30:14;;;;;;;3.23;2.37;;;7.30;99.90;;;;;;9997989;29;20225;-82
2020/12/15 02:35:36;;;;;;;2.30;2.10;;;7.30;99.90;;;;;;9984927;29;20197;-83
2020/12/15 02:40:59;;;;;;;2.57;2.03;;;7.30;99.90;;;;;;9987999;29;20229;-82
2020/12/15 02:46:20;;;;;;;3.63;2.57;;;7.30;99.90;;;;;;9991195;29;20224;-81
2020/12/15 02:51:45;;;;;;;3.40;2.43;;;7.40;99.90;;;;;;9990184;29;20235;-82
2020/12/15 02:57:07;;;;;;;4.70;2.60;;;7.40;99.90;;;;;;9990805;29;20207;-82
2020/12/15 03:02:29;;;;;;;4.63;3.13;;;7.40;99.90;;;;;;9991761;29;20565;-83
2020/12/15 03:07:51;;;;;;;3.40;2.67;;;7.40;99.90;;;;;;9990221;29;20229;-81
2020/12/15 03:13:13;;;;;;;3.90;2.63;;;7.50;99.90;;;;;;9992467;29;20715;-83
2020/12/15 03:18:35;;;;;;;3.10;2.50;;;7.50;99.90;;;;;;9989601;29;20602;-81
2020/12/15 03:23:57;;;;;;;4.00;3.40;;;7.70;99.90;;;;;;9986074;29;20253;-82
2020/12/15 03:29:19;;;;;;;4.93;3.33;;;7.80;99.90;;;;;;9989865;29;20687;-82
2020/12/15 03:34:41;;;;;;;3.03;2.60;;;7.90;99.90;;;;;;9988987;29;20201;-82
2020/12/15 03:40:03;;;;;;;3.70;3.27;;;7.90;99.90;;;;;;9990070;29;20589;-82
2020/12/15 03:45:25;;;;;;;3.20;2.90;;;7.90;99.90;;;;;;9988495;29;20236;-82
2020/12/15 03:50:47;;;;;;;5.47;3.43;;;7.90;99.90;;;;;;9987155;29;20225;-81
2020/12/15 03:56:09;;;;;;;4.40;3.63;;;8.00;99.90;;;;;;9989467;29;20208;-82
2020/12/15 04:01:31;;;;;;;7.40;3.47;;;7.90;99.90;;;;;;9987708;29;20217;-82
2020/12/15 04:06:53;;;;;;;3.73;3.23;;;7.80;99.90;;;;;;9988909;29;20714;-82
2020/12/15 04:12:14;;;;;;;4.00;3.50;;;7.80;99.90;;;;;;9988897;29;20225;-82
2020/12/15 04:17:37;;;;;;;4.03;3.47;;;7.70;99.90;;;;;;9993111;29;20197;-82
2020/12/15 04:22:59;;;;;;;4.00;3.40;;;7.70;99.90;;;;;;10024958;29;20220;-81
2020/12/15 04:28:20;;;;;;;4.03;3.63;;;7.80;99.90;;;;;;10022331;29;20722;-80
2020/12/15 04:33:43;;;;;;;4.13;3.73;;;7.70;99.90;;;;;;10017264;29;20221;-81
2020/12/15 04:39:05;;;;;;;4.20;3.67;;;7.70;99.90;;;;;;9983573;29;20751;-81
2020/12/15 04:44:26;;;;;;;6.00;3.90;;;7.70;99.90;;;;;;9982798;29;20837;-81
2020/12/15 04:50:02;;;;;;;4.13;3.50;;;7.70;99.90;;;;;;9981922;29;20193;-81
2020/12/15 04:55:24;;;;;;;5.07;4.00;;;7.60;99.90;;;;;;9985647;29;20204;-82
2020/12/15 05:00:46;;;;;;;4.40;4.00;;;7.60;99.90;;;;;;9984840;29;20232;-81
2020/12/15 05:06:16;;;;;;;4.47;3.90;;;7.60;99.90;;;;;;9983710;29;20243;-81
2020/12/15 05:11:38;;;;;;;4.60;3.90;;;7.80;99.90;;;;;;9984487;29;20280;-81
2020/12/15 05:17:00;;;;;;;6.53;3.67;;;7.80;99.90;;;;;;9988547;29;20579;-82
2020/12/15 05:22:22;;;;;;;4.73;3.70;;;7.80;99.90;;;;;;10023507;29;20221;-81
2020/12/15 05:27:44;;;;;;;4.70;4.00;;;7.70;99.90;;;;;;10021716;29;20307;-81
2020/12/15 05:33:13;;;;;;;4.40;4.00;;;7.80;99.90;;;;;;10020425;29;20261;-81
2020/12/15 05:38:36;;;;;;;4.63;4.07;;;7.70;99.90;;;;;;10020653;29;20375;-81
2020/12/15 05:43:58;;;;;;;5.73;4.17;;;7.70;99.90;;;;;;9997741;29;20715;-83
2020/12/15 05:49:32;;;;;;;4.63;3.90;;;7.80;99.90;;;;;;9984319;29;20221;-82
2020/12/15 05:55:08;;;;;;;5.10;4.43;;;7.80;99.90;;;;;;10006712;29;20197;-80
2020/12/15 06:00:31;;;;;;;6.03;4.03;;;7.80;99.90;;;;;;9956077;29;20225;-83
2020/12/15 06:05:56;;;;;;;4.17;3.73;;;7.80;99.90;;;;;;9947060;29;20218;-80
2020/12/15 06:11:20;;;;;;;4.90;4.40;;;7.70;99.90;;;;;;9950766;29;20217;-84
2020/12/15 06:16:43;;;;;;;4.97;4.47;;;7.60;99.90;;;;;;9964322;29;20333;-82
2020/12/15 06:22:05;;;;;;;5.27;4.03;;;7.50;99.90;;;;;;9984745;29;20700;-82
2020/12/15 06:27:35;;;;;;;6.03;4.50;;;7.60;99.90;;;;;;9983722;29;20233;-82
2020/12/15 06:33:01;;;;;;;4.70;4.20;;;7.60;99.90;;;;;;9984127;29;20233;-80
2020/12/15 06:38:23;;;;;;;4.57;4.17;;;7.60;99.90;;;;;;9963665;29;20202;-80
2020/12/15 06:43:46;;;;;;;5.73;4.60;;;7.60;99.90;;;;;;9982713;29;20727;-78
2020/12/15 06:49:10;;;;;;;6.20;4.77;;;7.50;99.90;;;;;;9968613;29;20220;-82
2020/12/15 06:54:33;;;;;;;5.47;4.90;;;7.60;99.90;;;;;;9981317;29;20221;-80
2020/12/15 06:59:58;;;;;;;6.50;4.83;;;7.80;99.90;;;;;;9980921;29;20205;-78
2020/12/15 07:05:24;;;;;;;8.40;5.47;;;7.70;99.90;;;;;;9977568;29;20703;-78
2020/12/15 07:10:46;;;;;;;7.80;5.40;;;7.90;99.90;;;;;;9977798;29;20300;-77
2020/12/15 07:16:18;;;;;;;5.17;4.67;;;7.90;99.90;;;;;;9970906;29;20202;-78
2020/12/15 07:21:41;;;;;;;7.00;5.20;;;7.90;99.90;;;;;;9960028;29;20229;-78
2020/12/15 07:27:03;;;;;;;6.40;4.80;;;8.00;99.90;;;;;;9983632;29;20233;-78
2020/12/15 07:32:26;;;;;;;6.23;5.63;;;8.10;99.90;;;;;;9982490;29;20699;-77
2020/12/15 07:37:49;;;;;;;5.67;4.90;;;8.10;99.90;;;;;;9980590;29;20270;-79
2020/12/15 07:43:11;;;;;;;6.80;6.03;;;8.00;99.90;;;;;;9981727;29;20260;-79
2020/12/15 07:48:34;;;;;;;7.47;6.53;;;8.00;99.90;;;;;;9958420;29;20229;-79
2020/12/15 07:53:57;;;;;;;8.90;5.40;;;8.10;99.90;;;;;;9982985;29;20229;-78
2020/12/15 07:59:19;;;;;;;5.57;4.97;;;8.00;99.90;;;;;;9984208;29;20202;-77
2020/12/15 08:04:42;;;;;;;6.13;5.53;;;8.00;99.90;;;;;;9985278;29;20683;-79
2020/12/15 08:10:04;;;;;;;5.87;4.80;;;8.10;99.90;;;;;;9995525;29;20706;-79
2020/12/15 08:15:27;;;;;;;6.70;4.57;;;8.10;99.90;;;;;;9983891;29;20206;-78
2020/12/15 08:20:53;;;;;;;6.77;4.80;;;8.20;99.90;;;;;;10019380;29;20220;-77
2020/12/15 08:26:17;;;;;;;5.23;4.27;;;8.20;99.90;;;;;;10022654;29;20602;-77
2020/12/15 08:31:41;;;;;;;4.93;4.37;;;8.20;99.90;;;;;;10003939;29;20229;-78
2020/12/15 08:37:05;;;;;;;5.47;4.70;;;8.30;99.90;;;;;;9981810;29;20217;-76
2020/12/15 08:42:27;;;;;;;7.27;5.10;;;8.30;99.90;;;;;;9983184;29;20302;-79
2020/12/15 08:47:49;;;;;;;5.03;4.53;;;8.30;99.90;;;;;;9983155;29;20221;-78
2020/12/15 08:53:12;;;;;;;6.30;4.87;;;8.40;99.90;;;;;;9979075;29;20248;-76
2020/12/15 08:58:34;;;;;;;8.23;6.40;;;8.50;99.90;;;;;;9980302;29;20209;-79
2020/12/15 09:03:56;;;;;;;6.10;5.27;;;8.50;99.90;;;;;;9978612;29;20221;-78
2020/12/15 09:09:26;;;;;;;5.13;4.47;;;8.70;99.90;;;;;;9992666;29;20216;-78
2020/12/15 09:14:48;;;;;;;5.03;4.50;;;8.70;99.90;;;;;;9988606;29;20703;-78
2020/12/15 09:20:10;;;;;;;6.40;4.63;;;8.70;99.90;;;;;;10013217;29;20569;-78
2020/12/15 09:25:32;;;;;;;8.40;4.70;;;8.80;99.90;;;;;;10001696;29;20273;-77
2020/12/15 09:30:54;;;;;;;5.70;4.73;;;8.70;99.90;;;;;;9982524;29;20633;-78
2020/12/15 09:36:16;;;;;;;5.23;4.20;;;8.90;99.90;;;;;;9982431;29;20212;-78
2020/12/15 09:41:39;;;;;;;5.37;3.97;;;9.00;99.90;;;;;;9982583;29;20225;-79
2020/12/15 09:47:04;;;;;;;6.40;4.07;;;9.20;99.90;;;;;;9982953;29;20230;-79
2020/12/15 09:52:26;;;;;;;5.47;4.70;;;9.30;99.90;;;;;;9982710;29;20245;-79
2020/12/15 09:57:48;;;;;;;5.27;4.50;;;9.40;99.90;;;;;;9983582;29;20209;-79
2020/12/15 10:03:10;;;;;;;5.30;4.70;;;9.40;99.90;;;;;;9983106;29;20229;-77
2020/12/15 10:08:32;;;;;;;5.30;4.50;;;9.40;99.90;;;;;;9982028;29;20234;-79
2020/12/15 10:13:54;;;;;;;4.53;4.13;;;9.50;99.90;;;;;;9999352;29;20252;-78
2020/12/15 10:19:16;;;;;;;5.23;4.73;;;9.50;99.90;;;;;;9985820;29;20214;-79
2020/12/15 10:24:37;;;;;;;5.57;4.40;;;9.60;99.90;;;;;;9979139;29;20592;-78
2020/12/15 10:30:01;;;;;;;4.90;4.40;;;9.70;99.90;;;;;;9981609;29;20222;-76
2020/12/15 10:35:23;;;;;;;6.93;4.50;;;9.80;99.90;;;;;;9979396;29;20613;-78
2020/12/15 10:40:46;;;;;;;5.77;5.00;;;9.50;99.90;;;;;;10019200;29;20228;-78
2020/12/15 10:46:09;;;;;;;6.27;5.27;;;9.60;99.90;;;;;;9995225;29;20225;-82
2020/12/15 10:51:31;;;;;;;6.63;5.27;;;9.80;99.90;;;;;;9989912;29;20297;-81
2020/12/15 10:56:53;;;;;;;5.30;4.80;;;10.10;99.90;;;;;;9986335;29;20244;-82
2020/12/15 11:02:17;;;;;;;5.77;5.07;;;10.10;99.90;;;;;;9993698;29;20228;-81
2020/12/15 11:07:39;;;;;;;5.97;4.73;;;10.20;99.90;;;;;;9998463;29;20591;-83
2020/12/15 11:13:01;;;;;;;5.90;4.87;;;10.20;99.90;;;;;;10011358;29;20225;-82
2020/12/15 11:18:24;;;;;;;6.87;5.57;;;10.10;99.90;;;;;;10011699;29;20212;-82
2020/12/15 11:23:45;;;;;;;8.57;6.97;;;9.80;99.90;;;;;;9978502;29;20254;-81
2020/12/15 11:29:07;;;;;;;11.77;9.03;;;9.80;99.90;;;;;;9999982;29;20323;-81
2020/12/15 11:34:30;;;;;;;12.53;9.70;;;10.10;99.90;;;;;;9996809;29;20261;-81
2020/12/15 11:39:51;;;;;;;23.70;13.30;;;10.00;99.90;;;;;;9995057;29;20274;-82
2020/12/15 11:45:14;;;;;;;7.40;6.07;;;10.00;99.90;;;;;;9976522;29;20207;-81
2020/12/15 11:50:36;;;;;;;9.53;7.03;;;10.00;99.90;;;;;;9990166;29;20286;-81
2020/12/15 11:55:58;;;;;;;12.00;8.67;;;10.00;99.90;;;;;;9986084;29;20210;-83
2020/12/15 12:01:20;;;;;;;10.30;7.40;;;10.10;99.90;;;;;;9996373;29;20235;-82
2020/12/15 12:06:43;;;;;;;11.50;8.47;;;10.10;99.90;;;;;;9995439;29;20248;-82
2020/12/15 12:12:05;;;;;;;16.03;10.63;;;10.00;99.90;;;;;;10015233;29;20228;-82
2020/12/15 12:17:28;;;;;;;14.50;11.90;;;9.90;99.90;;;;;;9999737;29;20273;-82
2020/12/15 12:22:50;;;;;;;10.50;8.17;;;10.10;99.90;;;;;;9988328;29;20230;-82
2020/12/15 12:28:13;;;;;;;7.93;6.83;;;9.90;99.90;;;;;;9984868;29;20226;-83
2020/12/15 12:33:34;;;;;;;7.80;7.00;;;9.80;99.90;;;;;;9945621;29;20221;-83
2020/12/15 12:38:57;;;;;;;8.73;7.00;;;9.90;99.90;;;;;;9984484;29;20212;-83
2020/12/15 12:44:19;;;;;;;9.50;7.63;;;9.70;99.90;;;;;;9982353;29;20226;-85
2020/12/15 12:49:41;;;;;;;7.47;6.67;;;9.70;99.90;;;;;;9955421;29;20233;-84
2020/12/15 12:55:05;;;;;;;10.13;7.77;;;9.70;99.90;;;;;;9991054;29;20209;-84
2020/12/15 13:00:26;;;;;;;9.50;7.23;;;9.60;99.90;;;;;;9985538;29;20691;-82
2020/12/15 13:05:48;;;;;;;9.10;7.60;;;9.60;99.90;;;;;;9982990;29;20646;-81
2020/12/15 13:11:10;;;;;;;14.83;12.67;;;9.60;99.90;;;;;;9984184;29;20229;-80
2020/12/15 13:16:32;;;;;;;11.70;10.33;;;9.60;99.90;;;;;;9987769;29;20205;-80
2020/12/15 13:21:54;;;;;;;11.10;9.80;;;9.60;99.90;;;;;;9988122;29;20237;-82
2020/12/15 13:27:16;;;;;;;10.73;9.03;;;9.60;99.90;;;;;;9990995;29;20221;-80
2020/12/15 13:32:38;;;;;;;11.03;7.73;;;9.60;99.90;;;;;;9984100;29;20302;-82
2020/12/15 13:38:00;;;;;;;12.00;7.97;;;9.50;99.90;;;;;;9994848;29;20197;-82
2020/12/15 13:43:22;;;;;;;8.83;7.30;;;9.50;99.90;;;;;;10003602;29;20236;-82
2020/12/15 13:48:44;;;;;;;10.33;8.17;;;9.50;99.90;;;;;;9986524;29;20225;-82
2020/12/15 13:54:06;;;;;;;9.60;8.13;;;9.50;99.90;;;;;;9986435;29;20225;-83
2020/12/15 13:59:28;;;;;;;11.87;9.37;;;9.50;99.90;;;;;;9985785;29;20248;-82
2020/12/15 14:04:50;;;;;;;11.63;9.83;;;9.40;99.90;;;;;;10005596;29;20201;-82
2020/12/15 14:10:13;;;;;;;11.27;8.43;;;9.30;99.90;;;;;;10024338;29;20236;-82
2020/12/15 14:15:36;;;;;;;10.50;8.90;;;9.40;99.90;;;;;;9990667;29;20220;-84
2020/12/15 14:20:57;;;;;;;10.53;8.87;;;9.40;99.90;;;;;;10017227;29;20220;-82
2020/12/15 14:26:19;;;;;;;11.27;8.30;;;9.30;99.90;;;;;;10019400;29;20688;-82
2020/12/15 14:31:42;;;;;;;13.27;9.73;;;9.30;99.90;;;;;;9986275;29;20734;-80
2020/12/15 14:37:04;;;;;;;12.00;10.33;;;9.30;99.90;;;;;;9984287;29;20205;-82
2020/12/15 14:42:26;;;;;;;11.50;9.47;;;9.20;99.90;;;;;;9994054;29;20244;-81
2020/12/15 14:47:48;;;;;;;12.70;9.40;;;9.30;99.90;;;;;;10010205;29;20229;-81
2020/12/15 14:53:10;;;;;;;10.93;9.47;;;9.40;99.90;;;;;;10009101;29;20229;-81
2020/12/15 14:58:32;;;;;;;16.37;11.40;;;9.40;99.90;;;;;;10016601;29;20287;-81
2020/12/15 15:03:54;;;;;;;12.03;9.20;;;9.50;99.90;;;;;;10021974;29;20602;-79
2020/12/15 15:09:16;;;;;;;11.33;9.10;;;9.50;99.90;;;;;;9971858;29;20667;-82
2020/12/15 15:14:38;;;;;;;15.20;10.80;;;9.40;99.90;;;;;;9950689;29;20291;-81
2020/12/15 15:20:00;;;;;;;10.73;9.60;;;9.30;99.90;;;;;;10011900;29;20279;-81
2020/12/15 15:25:23;;;;;;;12.50;9.23;;;9.40;99.90;;;;;;10020808;29;20236;-81
2020/12/15 15:30:44;;;;;;;11.30;9.50;;;9.30;99.90;;;;;;9981780;29;20238;-83
2020/12/15 15:36:08;;;;;;;11.27;9.30;;;9.30;99.90;;;;;;9986288;29;20243;-83
2020/12/15 15:41:29;;;;;;;12.23;9.23;;;9.30;99.90;;;;;;9990569;29;20248;-83
2020/12/15 15:46:51;;;;;;;11.60;9.37;;;9.30;99.90;;;;;;9994244;29;20241;-84
2020/12/15 15:52:14;;;;;;;11.97;9.97;;;9.40;99.90;;;;;;9987430;29;20217;-80
2020/12/15 15:57:36;;;;;;;16.97;13.33;;;9.20;99.90;;;;;;10001288;29;20689;-81
2020/12/15 16:02:58;;;;;;;12.47;10.77;;;9.10;99.90;;;;;;10024479;29;20247;-81
2020/12/15 16:08:21;;;;;;;12.13;10.53;;;9.20;99.90;;;;;;10006057;29;20243;-81
2020/12/15 16:13:43;;;;;;;12.63;11.20;;;9.30;99.90;;;;;;10014889;29;20231;-80
2020/12/15 16:19:05;;;;;;;12.67;10.97;;;9.30;99.90;;;;;;9998702;29;20205;-79
2020/12/15 16:24:27;;;;;;;13.40;10.60;;;9.30;99.90;;;;;;9982675;29;20229;-81
2020/12/15 16:29:49;;;;;;;11.77;10.17;;;9.30;99.90;;;;;;9986692;29;20236;-82
2020/12/15 16:35:11;;;;;;;12.50;10.07;;;9.30;99.90;;;;;;9984925;29;20205;-84
2020/12/15 16:40:33;;;;;;;14.93;10.80;;;9.40;99.90;;;;;;9973752;29;20273;-82
2020/12/15 16:45:55;;;;;;;13.47;10.50;;;9.30;99.90;;;;;;10015171;29;20233;-81
2020/12/15 16:51:17;;;;;;;15.37;11.70;;;9.50;99.90;;;;;;9984252;29;20217;-82
2020/12/15 16:56:40;;;;;;;15.50;11.70;;;9.40;99.90;;;;;;9973007;29;20289;-82
2020/12/15 17:02:02;;;;;;;15.53;11.50;;;9.50;99.90;;;;;;9971989;29;20741;-83
2020/12/15 17:07:24;;;;;;;15.60;11.10;;;9.50;99.90;;;;;;9976410;29;20225;-82
2020/12/15 17:12:47;;;;;;;15.13;11.47;;;9.60;99.90;;;;;;9989889;29;20239;-82
2020/12/15 17:18:09;;;;;;;15.37;11.90;;;9.60;99.90;;;;;;9983543;29;20642;-83
2020/12/15 17:23:31;;;;;;;13.40;11.03;;;9.50;99.90;;;;;;9968475;29;20244;-80
2020/12/15 17:28:53;;;;;;;14.60;11.77;;;9.60;99.90;;;;;;9977925;29;20285;-81
2020/12/15 17:34:15;;;;;;;21.13;14.53;;;9.50;99.90;;;;;;9993785;29;20237;-81
2020/12/15 17:39:42;;;;;;;14.23;11.33;;;9.60;99.90;;;;;;9990246;29;20213;-82
2020/12/15 17:45:04;;;;;;;10.77;9.47;;;9.60;99.90;;;;;;9990317;29;20209;-82
2020/12/15 17:50:26;;;;;;;10.47;9.00;;;9.60;99.90;;;;;;9986433;29;20237;-81
2020/12/15 17:55:48;;;;;;;13.33;10.10;;;9.50;99.90;;;;;;9986573;29;20235;-82
2020/12/15 18:01:11;;;;;;;10.17;8.27;;;9.60;99.90;;;;;;9998309;29;20592;-81
2020/12/15 18:06:32;;;;;;;9.83;7.70;;;9.70;99.90;;;;;;9977326;29;20214;-80
2020/12/15 18:11:55;;;;;;;11.50;9.93;;;9.70;99.90;;;;;;9987275;29;20240;-81
2020/12/15 18:17:18;;;;;;;11.37;9.73;;;9.70;99.90;;;;;;9979816;29;20220;-82
2020/12/15 18:22:40;;;;;;;12.53;9.07;;;9.60;99.90;;;;;;9988510;29;20225;-81
2020/12/15 18:28:02;;;;;;;9.23;8.17;;;9.60;99.90;;;;;;9993533;29;20231;-84
2020/12/15 18:33:24;;;;;;;10.07;8.80;;;9.70;99.90;;;;;;9995385;29;20894;-83
2020/12/15 18:38:46;;;;;;;10.93;8.80;;;9.70;99.90;;;;;;10003970;29;20217;-80
2020/12/15 18:44:08;;;;;;;11.23;9.30;;;9.70;99.90;;;;;;10006105;29;20266;-84
2020/12/15 18:49:31;;;;;;;13.50;10.53;;;9.70;99.90;;;;;;10008444;29;20228;-82
2020/12/15 18:54:54;;;;;;;15.33;12.47;;;9.80;99.90;;;;;;9988283;29;20208;-84
2020/12/15 19:00:16;;;;;;;14.87;11.83;;;9.80;99.90;;;;;;10025659;29;20334;-82
2020/12/15 19:05:39;;;;;;;17.40;12.87;;;9.80;99.90;;;;;;10026023;29;20239;-82
2020/12/15 19:11:01;;;;;;;18.17;13.47;;;9.90;99.90;;;;;;10014927;29;20219;-81
2020/12/15 19:16:23;;;;;;;18.97;13.93;;;9.80;99.90;;;;;;10019822;29;20209;-84
2020/12/15 19:21:46;;;;;;;17.67;13.83;;;9.70;99.90;;;;;;9989775;29;21481;-82
2020/12/15 19:27:08;;;;;;;20.60;15.43;;;9.80;99.90;;;;;;9983284;29;20223;-83
2020/12/15 19:32:30;;;;;;;20.60;15.63;;;9.70;99.90;;;;;;9977770;29;20221;-83
2020/12/15 19:37:53;;;;;;;22.33;16.53;;;9.70;99.90;;;;;;9996581;29;20350;-84
2020/12/15 19:43:15;;;;;;;23.43;17.23;;;9.80;99.90;;;;;;9961439;29;20695;-84
2020/12/15 19:48:37;;;;;;;20.17;15.03;;;9.90;99.90;;;;;;9974133;29;20304;-85
2020/12/15 19:54:01;;;;;;;16.70;13.47;;;10.00;99.90;;;;;;9979759;29;20304;-86
2020/12/15 19:59:23;;;;;;;17.40;13.57;;;10.00;99.90;;;;;;9988040;29;20285;-87
2020/12/15 20:04:45;;;;;;;16.60;12.87;;;9.90;99.90;;;;;;9990273;29;20380;-87
2020/12/15 20:10:08;;;;;;;15.90;13.10;;;9.90;99.90;;;;;;10009342;29;20225;-84
2020/12/15 20:15:30;;;;;;;17.03;13.03;;;10.00;99.90;;;;;;10000816;29;20205;-85
2020/12/15 20:20:52;;;;;;;16.03;12.57;;;9.90;99.90;;;;;;9985943;29;20378;-85
2020/12/15 20:26:15;;;;;;;14.47;11.77;;;9.80;99.90;;;;;;10023566;29;20714;-85
2020/12/15 20:31:38;;;;;;;29.80;18.63;;;10.00;99.90;;;;;;9992399;29;20232;-85
2020/12/15 20:37:00;;;;;;;23.97;15.97;;;10.00;99.90;;;;;;10019824;29;20280;-85
2020/12/15 20:42:23;;;;;;;36.67;19.93;;;10.00;99.90;;;;;;10020054;29;20253;-88
2020/12/15 20:47:45;;;;;;;24.23;16.10;;;10.00;99.90;;;;;;9952379;29;20234;-84
2020/12/15 20:53:07;;;;;;;22.83;15.73;;;10.10;99.90;;;;;;9973286;29;20257;-83
2020/12/15 20:58:30;;;;;;;23.70;16.23;;;10.00;99.90;;;;;;9985879;29;20283;-83
2020/12/15 21:03:52;;;;;;;21.90;16.30;;;10.00;99.90;;;;;;9985092;29;20228;-85
2020/12/15 21:09:13;;;;;;;25.50;17.33;;;10.10;99.90;;;;;;9985483;29;20237;-84
2020/12/15 21:14:36;;;;;;;28.00;19.00;;;10.10;99.90;;;;;;9984139;29;20227;-84
2020/12/15 21:19:58;;;;;;;25.73;17.97;;;10.10;99.90;;;;;;9987661;29;20208;-82
2020/12/15 21:25:20;;;;;;;27.77;18.30;;;10.10;99.90;;;;;;9957723;29;20202;-83
2020/12/15 21:30:42;;;;;;;27.60;18.83;;;10.10;99.90;;;;;;9961158;29;20291;-81
2020/12/15 21:36:05;;;;;;;25.20;16.97;;;10.10;99.90;;;;;;9987404;29;20209;-78
2020/12/15 21:41:27;;;;;;;24.27;18.00;;;10.10;99.90;;;;;;9988272;29;20225;-80
2020/12/15 21:46:51;;;;;;;26.33;18.03;;;10.10;99.90;;;;;;9984468;29;20221;-81
2020/12/15 21:52:15;;;;;;;27.43;19.47;;;10.20;99.90;;;;;;9988501;29;20711;-83
2020/12/15 21:57:36;;;;;;;30.77;20.40;;;10.20;99.90;;;;;;9957937;29;20198;-83
2020/12/15 22:02:59;;;;;;;25.97;17.77;;;10.10;99.90;;;;;;9969706;29;20247;-82
2020/12/15 22:08:21;;;;;;;29.00;19.53;;;10.00;99.90;;;;;;9986343;29;20221;-83
2020/12/15 22:13:42;;;;;;;29.13;19.57;;;10.20;99.90;;;;;;9985864;29;20217;-83
2020/12/15 22:19:05;;;;;;;27.20;19.07;;;10.30;99.90;;;;;;9999171;29;20200;-84
2020/12/15 22:24:27;;;;;;;27.77;18.20;;;10.30;99.90;;;;;;9984729;29;20221;-83
2020/12/15 22:29:49;;;;;;;27.53;18.87;;;10.30;99.90;;;;;;9986183;29;20217;-84
2020/12/15 22:35:11;;;;;;;24.80;18.87;;;10.20;99.90;;;;;;9988007;29;20205;-84
2020/12/15 22:40:33;;;;;;;23.57;18.03;;;10.10;99.90;;;;;;9986748;29;20220;-84
2020/12/15 22:45:55;;;;;;;26.57;19.27;;;10.00;99.90;;;;;;9984069;29;20201;-83
2020/12/15 22:51:18;;;;;;;25.97;17.30;;;10.00;99.90;;;;;;9983393;29;20311;-84
2020/12/15 22:56:39;;;;;;;23.70;17.57;;;10.00;99.90;;;;;;9986892;29;20189;-84
2020/12/15 23:02:01;;;;;;;21.67;16.90;;;10.00;99.90;;;;;;9984418;29;20593;-84
2020/12/15 23:07:24;;;;;;;21.67;16.03;;;10.00;99.90;;;;;;9952980;29;20220;-84
2020/12/15 23:12:46;;;;;;;22.03;16.73;;;10.00;99.90;;;;;;9954427;29;20227;-84
2020/12/15 23:18:07;;;;;;;21.47;16.37;;;10.00;99.90;;;;;;9977384;29;20710;-83
2020/12/15 23:23:30;;;;;;;23.37;17.20;;;10.00;99.90;;;;;;9991009;29;20218;-83
2020/12/15 23:28:52;;;;;;;21.03;16.43;;;10.20;99.90;;;;;;9989463;29;20274;-83
2020/12/15 23:34:13;;;;;;;25.90;17.37;;;10.10;99.90;;;;;;9987292;29;20628;-83
2020/12/15 23:39:36;;;;;;;22.70;16.50;;;10.10;99.90;;;;;;9988872;29;20210;-83
2020/12/15 23:44:58;;;;;;;20.33;15.97;;;10.00;99.90;;;;;;9985520;29;20293;-84
2020/12/15 23:50:19;;;;;;;24.37;17.73;;;10.00;99.90;;;;;;9987810;29;20721;-83
2020/12/15 23:55:42;;;;;;;26.37;19.37;;;9.90;99.90;;;;;;9988188;29;20206;-83
